sensor_id;sensor_type;location;lat;lon;timestamp;pressure;altitude;pressure_sealevel;temperature;humidity
22311;BME280;11323;49.610;11.016;2023-04-06T00:02:33;98476.03;;;13.56;67.84
22311;BME280;11323;49.610;11.016;2023-04-06T00:07:33;98471.44;;;13.50;67.63
22311;BME280;11323;49.610;11.016;2023-04-06T00:12:34;98465.88;;;13.53;67.52
22311;BME280;11323;49.610;11.016;2023-04-06T00:17:34;98464.56;;;13.49;67.74
22311;BME280;11323;49.610;11.016;2023-04-06T00:22:34;98461.78;;;13.50;67.56
22311;BME280;11323;49.610;11.016;2023-04-06T00:27:35;98461.56;;;13.43;67.66
22311;BME280;11323;49.610;11.016;2023-04-06T00:32:35;98463.38;;;13.43;67.66
22311;BME280;11323;49.610;11.016;2023-04-06T00:37:36;98456.94;;;13.37;67.74
22311;BME280;11323;49.610;11.016;2023-04-06T00:42:36;98458.88;;;13.35;67.91
22311;BME280;11323;49.610;11.016;2023-04-06T00:47:37;98449.22;;;13.36;67.84
22311;BME280;11323;49.610;11.016;2023-04-06T00:52:37;98449.38;;;13.34;68.13
22311;BME280;11323;49.610;11.016;2023-04-06T00:57:41;98447.06;;;13.31;67.97
22311;BME280;11323;49.610;11.016;2023-04-06T01:02:41;98449.53;;;13.33;68.14
22311;BME280;11323;49.610;11.016;2023-04-06T01:07:44;98444.78;;;13.28;68.20
22311;BME280;11323;49.610;11.016;2023-04-06T01:12:51;98452.63;;;13.28;67.79
22311;BME280;11323;49.610;11.016;2023-04-06T01:18:03;98438.88;;;13.26;68.10
22311;BME280;11323;49.610;11.016;2023-04-06T01:23:05;98443.25;;;13.25;67.64
22311;BME280;11323;49.610;11.016;2023-04-06T01:28:06;98439.16;;;13.23;67.84
22311;BME280;11323;49.610;11.016;2023-04-06T01:33:29;98418.00;;;13.16;68.12
22311;BME280;11323;49.610;11.016;2023-04-06T01:38:35;98425.41;;;13.21;67.69
22311;BME280;11323;49.610;11.016;2023-04-06T01:43:36;98426.06;;;13.23;67.61
22311;BME280;11323;49.610;11.016;2023-04-06T01:48:40;98420.16;;;13.21;67.90
22311;BME280;11323;49.610;11.016;2023-04-06T01:53:49;98428.19;;;13.19;67.41
22311;BME280;11323;49.610;11.016;2023-04-06T01:58:50;98418.84;;;13.17;68.02
22311;BME280;11323;49.610;11.016;2023-04-06T02:03:52;98412.94;;;13.15;68.10
22311;BME280;11323;49.610;11.016;2023-04-06T02:08:53;98420.47;;;13.18;67.49
22311;BME280;11323;49.610;11.016;2023-04-06T02:13:55;98419.28;;;13.12;67.71
22311;BME280;11323;49.610;11.016;2023-04-06T02:18:58;98419.66;;;13.17;67.55
22311;BME280;11323;49.610;11.016;2023-04-06T02:23:59;98415.88;;;13.11;67.95
22311;BME280;11323;49.610;11.016;2023-04-06T02:28:59;98414.06;;;13.12;68.01
22311;BME280;11323;49.610;11.016;2023-04-06T02:34:00;98411.75;;;13.09;67.90
22311;BME280;11323;49.610;11.016;2023-04-06T02:39:02;98409.16;;;13.09;67.79
22311;BME280;11323;49.610;11.016;2023-04-06T02:44:03;98416.16;;;13.08;67.80
22311;BME280;11323;49.610;11.016;2023-04-06T02:49:12;98417.81;;;13.09;67.74
22311;BME280;11323;49.610;11.016;2023-04-06T02:54:14;98402.75;;;13.03;67.73
22311;BME280;11323;49.610;11.016;2023-04-06T02:59:14;98415.50;;;13.06;67.63
22311;BME280;11323;49.610;11.016;2023-04-06T03:04:21;98416.78;;;13.02;67.83
22311;BME280;11323;49.610;11.016;2023-04-06T03:09:24;98414.97;;;13.03;68.07
22311;BME280;11323;49.610;11.016;2023-04-06T03:14:24;98402.81;;;12.93;67.89
22311;BME280;11323;49.610;11.016;2023-04-06T03:19:25;98415.16;;;13.01;67.86
22311;BME280;11323;49.610;11.016;2023-04-06T03:24:27;98415.44;;;12.98;67.64
22311;BME280;11323;49.610;11.016;2023-04-06T03:29:28;98408.56;;;12.97;67.90
22311;BME280;11323;49.610;11.016;2023-04-06T03:34:29;98407.25;;;12.93;67.92
22311;BME280;11323;49.610;11.016;2023-04-06T03:39:29;98416.41;;;12.97;67.93
22311;BME280;11323;49.610;11.016;2023-04-06T03:44:31;98419.34;;;12.94;67.72
22311;BME280;11323;49.610;11.016;2023-04-06T03:49:32;98411.13;;;12.89;67.93
22311;BME280;11323;49.610;11.016;2023-04-06T03:54:33;98419.34;;;12.94;68.07
22311;BME280;11323;49.610;11.016;2023-04-06T03:59:34;98425.56;;;12.93;67.60
22311;BME280;11323;49.610;11.016;2023-04-06T04:04:34;98427.63;;;12.89;67.66
22311;BME280;11323;49.610;11.016;2023-04-06T04:09:35;98425.84;;;12.90;67.77
22311;BME280;11323;49.610;11.016;2023-04-06T04:14:35;98423.53;;;12.87;68.41
22311;BME280;11323;49.610;11.016;2023-04-06T04:19:35;98429.44;;;12.89;67.87
22311;BME280;11323;49.610;11.016;2023-04-06T04:24:36;98434.84;;;12.87;68.09
22311;BME280;11323;49.610;11.016;2023-04-06T04:29:37;98431.69;;;12.83;67.86
22311;BME280;11323;49.610;11.016;2023-04-06T04:34:42;98424.00;;;12.82;68.16
22311;BME280;11323;49.610;11.016;2023-04-06T04:39:48;98432.69;;;12.82;67.53
22311;BME280;11323;49.610;11.016;2023-04-06T04:44:49;98437.91;;;12.82;67.82
22311;BME280;11323;49.610;11.016;2023-04-06T04:49:55;98432.97;;;12.79;67.55
22311;BME280;11323;49.610;11.016;2023-04-06T04:54:58;98436.56;;;12.78;67.95
22311;BME280;11323;49.610;11.016;2023-04-06T05:00:02;98434.91;;;12.77;68.13
22311;BME280;11323;49.610;11.016;2023-04-06T05:05:04;98441.78;;;12.78;68.49
22311;BME280;11323;49.610;11.016;2023-04-06T05:10:05;98439.34;;;12.77;67.90
22311;BME280;11323;49.610;11.016;2023-04-06T05:15:11;98441.28;;;12.75;68.10
22311;BME280;11323;49.610;11.016;2023-04-06T05:20:15;98447.31;;;12.75;67.74
22311;BME280;11323;49.610;11.016;2023-04-06T05:25:22;98441.56;;;12.72;68.21
22311;BME280;11323;49.610;11.016;2023-04-06T05:30:26;98439.25;;;12.69;67.80
22311;BME280;11323;49.610;11.016;2023-04-06T05:35:26;98450.22;;;12.72;67.86
22311;BME280;11323;49.610;11.016;2023-04-06T05:40:31;98462.47;;;12.72;67.58
22311;BME280;11323;49.610;11.016;2023-04-06T05:45:32;98443.66;;;12.68;68.03
22311;BME280;11323;49.610;11.016;2023-04-06T05:50:33;98455.78;;;12.69;67.80
22311;BME280;11323;49.610;11.016;2023-04-06T05:55:34;98455.59;;;12.71;68.24
22311;BME280;11323;49.610;11.016;2023-04-06T06:00:44;98459.06;;;12.71;68.16
22311;BME280;11323;49.610;11.016;2023-04-06T06:05:49;98459.50;;;12.66;67.68
22311;BME280;11323;49.610;11.016;2023-04-06T06:10:56;98471.00;;;12.74;67.85
22311;BME280;11323;49.610;11.016;2023-04-06T06:15:58;98466.22;;;12.69;67.98
22311;BME280;11323;49.610;11.016;2023-04-06T06:21:00;98474.06;;;12.69;67.95
22311;BME280;11323;49.610;11.016;2023-04-06T06:26:03;98470.78;;;12.67;68.08
22311;BME280;11323;49.610;11.016;2023-04-06T06:31:04;98468.00;;;12.69;67.84
22311;BME280;11323;49.610;11.016;2023-04-06T06:36:05;98471.28;;;12.71;67.66
22311;BME280;11323;49.610;11.016;2023-04-06T06:41:06;98477.38;;;12.71;67.88
22311;BME280;11323;49.610;11.016;2023-04-06T06:46:09;98477.88;;;12.75;68.35
22311;BME280;11323;49.610;11.016;2023-04-06T06:51:09;98476.59;;;12.79;68.40
22311;BME280;11323;49.610;11.016;2023-04-06T06:56:14;98474.81;;;12.79;67.93
22311;BME280;11323;49.610;11.016;2023-04-06T07:01:15;98475.84;;;12.87;67.79
22311;BME280;11323;49.610;11.016;2023-04-06T07:06:16;98466.06;;;12.89;68.16
22311;BME280;11323;49.610;11.016;2023-04-06T07:11:16;98471.97;;;12.91;68.12
22311;BME280;11323;49.610;11.016;2023-04-06T07:16:17;98476.91;;;12.94;67.72
22311;BME280;11323;49.610;11.016;2023-04-06T07:21:17;98471.06;;;13.00;68.10
22311;BME280;11323;49.610;11.016;2023-04-06T07:26:18;98483.09;;;13.11;67.95
22311;BME280;11323;49.610;11.016;2023-04-06T07:31:19;98480.03;;;13.16;67.64
22311;BME280;11323;49.610;11.016;2023-04-06T07:36:20;98482.00;;;13.22;68.11
22311;BME280;11323;49.610;11.016;2023-04-06T07:41:21;98481.03;;;13.23;68.19
22311;BME280;11323;49.610;11.016;2023-04-06T07:46:22;98483.72;;;13.31;68.26
22311;BME280;11323;49.610;11.016;2023-04-06T07:51:22;98475.38;;;13.36;67.86
22311;BME280;11323;49.610;11.016;2023-04-06T07:56:23;98467.94;;;13.41;67.92
22311;BME280;11323;49.610;11.016;2023-04-06T08:01:24;98476.97;;;13.47;68.40
22311;BME280;11323;49.610;11.016;2023-04-06T08:06:24;98478.97;;;13.53;68.37
22311;BME280;11323;49.610;11.016;2023-04-06T08:11:25;98477.69;;;13.57;68.07
22311;BME280;11323;49.610;11.016;2023-04-06T08:16:26;98477.53;;;13.58;67.99
22311;BME280;11323;49.610;11.016;2023-04-06T08:21:27;98469.53;;;13.60;68.01
22311;BME280;11323;49.610;11.016;2023-04-06T08:26:27;98480.69;;;13.62;67.40
22311;BME280;11323;49.610;11.016;2023-04-06T08:31:28;98476.53;;;13.59;67.56
22311;BME280;11323;49.610;11.016;2023-04-06T08:36:29;98474.44;;;13.63;67.48
22311;BME280;11323;49.610;11.016;2023-04-06T08:41:31;98474.44;;;13.63;67.25
22311;BME280;11323;49.610;11.016;2023-04-06T08:46:32;98466.56;;;13.63;67.51
22311;BME280;11323;49.610;11.016;2023-04-06T08:51:32;98465.47;;;13.66;67.38
22311;BME280;11323;49.610;11.016;2023-04-06T08:56:33;98483.38;;;13.79;67.28
22311;BME280;11323;49.610;11.016;2023-04-06T09:01:39;98481.09;;;13.84;67.30
22311;BME280;11323;49.610;11.016;2023-04-06T09:06:44;98473.16;;;13.67;61.57
22311;BME280;11323;49.610;11.016;2023-04-06T09:11:49;98474.88;;;13.32;59.05
22311;BME280;11323;49.610;11.016;2023-04-06T09:16:50;98469.03;;;13.56;62.17
22311;BME280;11323;49.610;11.016;2023-04-06T09:22:01;98463.97;;;13.63;63.22
22311;BME280;11323;49.610;11.016;2023-04-06T09:27:02;98449.88;;;13.64;63.87
22311;BME280;11323;49.610;11.016;2023-04-06T09:32:06;98458.41;;;13.66;64.34
22311;BME280;11323;49.610;11.016;2023-04-06T09:37:16;98451.59;;;13.73;64.52
22311;BME280;11323;49.610;11.016;2023-04-06T09:42:24;98455.03;;;13.74;64.61
22311;BME280;11323;49.610;11.016;2023-04-06T09:47:26;98450.59;;;13.74;64.94
22311;BME280;11323;49.610;11.016;2023-04-06T09:52:32;98442.09;;;13.72;64.79
22311;BME280;11323;49.610;11.016;2023-04-06T09:57:44;98442.72;;;13.74;64.75
22311;BME280;11323;49.610;11.016;2023-04-06T10:03:11;98437.50;;;13.74;65.43
22311;BME280;11323;49.610;11.016;2023-04-06T10:08:13;98440.13;;;13.74;65.56
22311;BME280;11323;49.610;11.016;2023-04-06T10:13:15;98433.09;;;13.75;65.39
22311;BME280;11323;49.610;11.016;2023-04-06T10:18:16;98431.44;;;13.74;65.38
22311;BME280;11323;49.610;11.016;2023-04-06T10:23:26;98429.69;;;13.83;65.74
22311;BME280;11323;49.610;11.016;2023-04-06T10:28:36;98425.75;;;13.87;65.66
22311;BME280;11323;49.610;11.016;2023-04-06T10:33:36;98425.94;;;13.94;65.79
22311;BME280;11323;49.610;11.016;2023-04-06T10:38:38;98424.00;;;13.96;65.87
22311;BME280;11323;49.610;11.016;2023-04-06T10:43:40;98422.03;;;13.98;65.70
22311;BME280;11323;49.610;11.016;2023-04-06T10:48:42;98413.19;;;13.99;65.67
22311;BME280;11323;49.610;11.016;2023-04-06T10:53:44;98407.13;;;13.98;65.80
22311;BME280;11323;49.610;11.016;2023-04-06T10:58:47;98396.31;;;13.93;65.94
22311;BME280;11323;49.610;11.016;2023-04-06T11:03:51;98398.59;;;13.96;65.91
22311;BME280;11323;49.610;11.016;2023-04-06T11:08:55;98390.91;;;13.95;65.93
22311;BME280;11323;49.610;11.016;2023-04-06T11:13:57;98395.16;;;13.96;66.17
22311;BME280;11323;49.610;11.016;2023-04-06T11:19:04;98384.84;;;13.94;66.39
22311;BME280;11323;49.610;11.016;2023-04-06T11:24:06;98383.22;;;13.93;65.65
22311;BME280;11323;49.610;11.016;2023-04-06T11:29:07;98386.81;;;13.92;65.76
22311;BME280;11323;49.610;11.016;2023-04-06T11:34:12;98384.84;;;13.94;66.21
22311;BME280;11323;49.610;11.016;2023-04-06T11:39:18;98370.44;;;13.98;65.97
22311;BME280;11323;49.610;11.016;2023-04-06T11:44:38;98372.44;;;14.04;66.46
22311;BME280;11323;49.610;11.016;2023-04-06T11:49:43;98364.88;;;14.10;66.41
22311;BME280;11323;49.610;11.016;2023-04-06T11:54:46;98352.94;;;14.07;66.53
22311;BME280;11323;49.610;11.016;2023-04-06T11:59:47;98338.03;;;14.08;66.44
22311;BME280;11323;49.610;11.016;2023-04-06T12:04:47;98341.97;;;14.12;66.34
22311;BME280;11323;49.610;11.016;2023-04-06T12:09:48;98339.03;;;14.15;66.31
22311;BME280;11323;49.610;11.016;2023-04-06T12:14:48;98334.59;;;14.15;66.04
22311;BME280;11323;49.610;11.016;2023-04-06T12:19:48;98334.59;;;14.15;66.74
22311;BME280;11323;49.610;11.016;2023-04-06T12:24:49;98329.34;;;14.15;66.11
22311;BME280;11323;49.610;11.016;2023-04-06T12:29:49;98320.69;;;14.15;66.67
22311;BME280;11323;49.610;11.016;2023-04-06T12:34:52;98328.56;;;14.15;66.39
22311;BME280;11323;49.610;11.016;2023-04-06T12:39:52;98328.56;;;14.15;66.00
22311;BME280;11323;49.610;11.016;2023-04-06T12:44:53;98325.25;;;14.13;66.31
22311;BME280;11323;49.610;11.016;2023-04-06T12:49:53;98319.72;;;14.16;66.38
22311;BME280;11323;49.610;11.016;2023-04-06T12:54:55;98315.94;;;14.18;66.38
22311;BME280;11323;49.610;11.016;2023-04-06T12:59:56;98307.56;;;14.23;66.43
22311;BME280;11323;49.610;11.016;2023-04-06T13:04:57;98301.84;;;14.28;66.73
22311;BME280;11323;49.610;11.016;2023-04-06T13:09:57;98303.97;;;14.32;66.63
22311;BME280;11323;49.610;11.016;2023-04-06T13:14:58;98301.34;;;14.32;66.89
22311;BME280;11323;49.610;11.016;2023-04-06T13:19:58;98296.75;;;14.34;66.97
22311;BME280;11323;49.610;11.016;2023-04-06T13:24:58;98289.56;;;14.36;66.62
22311;BME280;11323;49.610;11.016;2023-04-06T13:29:59;98284.50;;;14.35;66.64
22311;BME280;11323;49.610;11.016;2023-04-06T13:34:59;98277.94;;;14.31;67.00
22311;BME280;11323;49.610;11.016;2023-04-06T13:40:04;98280.06;;;14.35;66.78
22311;BME280;11323;49.610;11.016;2023-04-06T13:45:07;98275.47;;;14.38;66.59
22311;BME280;11323;49.610;11.016;2023-04-06T13:50:08;98275.47;;;14.38;66.78
22311;BME280;11323;49.610;11.016;2023-04-06T13:55:09;98265.31;;;14.34;66.46
22311;BME280;11323;49.610;11.016;2023-04-06T14:00:09;98266.63;;;14.39;66.37
22311;BME280;11323;49.610;11.016;2023-04-06T14:05:12;98266.13;;;14.35;66.24
22311;BME280;11323;49.610;11.016;2023-04-06T14:10:13;98263.34;;;14.36;66.18
22311;BME280;11323;49.610;11.016;2023-04-06T14:15:14;98258.91;;;14.37;66.33
22311;BME280;11323;49.610;11.016;2023-04-06T14:20:15;98258.41;;;14.33;66.24
22311;BME280;11323;49.610;11.016;2023-04-06T14:25:16;98254.16;;;14.32;66.67
22311;BME280;11323;49.610;11.016;2023-04-06T14:30:16;98258.41;;;14.33;66.35
22311;BME280;11323;49.610;11.016;2023-04-06T14:35:19;98256.44;;;14.35;66.23
22311;BME280;11323;49.610;11.016;2023-04-06T14:40:19;98251.38;;;14.34;66.67
22311;BME280;11323;49.610;11.016;2023-04-06T14:45:20;98245.97;;;14.35;66.24
22311;BME280;11323;49.610;11.016;2023-04-06T14:50:21;98242.69;;;14.33;66.31
22311;BME280;11323;49.610;11.016;2023-04-06T14:55:22;98241.69;;;14.43;66.52
22311;BME280;11323;49.610;11.016;2023-04-06T15:00:22;98238.91;;;14.44;66.41
22311;BME280;11323;49.610;11.016;2023-04-06T15:05:23;98236.44;;;14.51;66.52
22311;BME280;11323;49.610;11.016;2023-04-06T15:10:23;98242.31;;;14.53;66.71
22311;BME280;11323;49.610;11.016;2023-04-06T15:15:23;98234.44;;;14.53;66.79
22311;BME280;11323;49.610;11.016;2023-04-06T15:20:24;98231.34;;;14.58;66.76
22311;BME280;11323;49.610;11.016;2023-04-06T15:25:25;98242.84;;;14.57;66.51
22311;BME280;11323;49.610;11.016;2023-04-06T15:30:25;98230.84;;;14.54;66.77
22311;BME280;11323;49.610;11.016;2023-04-06T15:35:26;98224.13;;;14.60;66.63
22311;BME280;11323;49.610;11.016;2023-04-06T15:40:27;98229.53;;;14.58;66.71
22311;BME280;11323;49.610;11.016;2023-04-06T15:45:28;98230.19;;;14.60;66.54
22311;BME280;11323;49.610;11.016;2023-04-06T15:50:28;98225.94;;;14.59;66.69
22311;BME280;11323;49.610;11.016;2023-04-06T15:55:28;98225.94;;;14.59;66.59
22311;BME280;11323;49.610;11.016;2023-04-06T16:00:29;98223.97;;;14.61;66.49
22311;BME280;11323;49.610;11.016;2023-04-06T16:05:29;98224.94;;;14.60;66.58
22311;BME280;11323;49.610;11.016;2023-04-06T16:10:30;98218.25;;;14.58;66.43
22311;BME280;11323;49.610;11.016;2023-04-06T16:15:32;98220.69;;;14.59;66.62
22311;BME280;11323;49.610;11.016;2023-04-06T16:20:34;98225.25;;;14.65;66.60
22311;BME280;11323;49.610;11.016;2023-04-06T16:25:35;98223.31;;;14.67;66.57
22311;BME280;11323;49.610;11.016;2023-04-06T16:30:36;98224.06;;;14.85;66.92
22311;BME280;11323;49.610;11.016;2023-04-06T16:35:46;98235.88;;;14.89;66.62
22311;BME280;11323;49.610;11.016;2023-04-06T16:40:47;98223.09;;;14.86;66.60
22311;BME280;11323;49.610;11.016;2023-04-06T16:45:50;98230.16;;;14.85;66.76
22311;BME280;11323;49.610;11.016;2023-04-06T16:50:51;98213.09;;;14.81;66.67
22311;BME280;11323;49.610;11.016;2023-04-06T16:55:51;98230.31;;;14.83;66.86
22311;BME280;11323;49.610;11.016;2023-04-06T17:00:52;98227.88;;;14.82;66.94
22311;BME280;11323;49.610;11.016;2023-04-06T17:05:52;98231.28;;;14.82;66.58
22311;BME280;11323;49.610;11.016;2023-04-06T17:10:52;98228.84;;;14.81;67.01
22311;BME280;11323;49.610;11.016;2023-04-06T17:15:53;98234.09;;;14.81;66.70
22311;BME280;11323;49.610;11.016;2023-04-06T17:20:57;98234.44;;;14.78;66.48
22311;BME280;11323;49.610;11.016;2023-04-06T17:25:57;98235.41;;;14.77;66.58
22311;BME280;11323;49.610;11.016;2023-04-06T17:30:58;98235.41;;;14.77;66.41
22311;BME280;11323;49.610;11.016;2023-04-06T17:35:59;98233.78;;;14.76;66.35
22311;BME280;11323;49.610;11.016;2023-04-06T17:41:00;98240.03;;;14.75;66.43
22311;BME280;11323;49.610;11.016;2023-04-06T17:46:04;98233.94;;;14.74;66.58
22311;BME280;11323;49.610;11.016;2023-04-06T17:51:04;98235.91;;;14.80;66.90
22311;BME280;11323;49.610;11.016;2023-04-06T17:56:05;98240.50;;;14.78;66.92
22311;BME280;11323;49.610;11.016;2023-04-06T18:01:06;98247.88;;;14.83;66.79
22311;BME280;11323;49.610;11.016;2023-04-06T18:06:12;98236.38;;;14.76;66.53
22311;BME280;11323;49.610;11.016;2023-04-06T18:11:15;98255.56;;;14.85;66.59
22311;BME280;11323;49.610;11.016;2023-04-06T18:16:16;98258.50;;;14.81;66.86
22311;BME280;11323;49.610;11.016;2023-04-06T18:21:19;98253.44;;;14.80;66.87
22311;BME280;11323;49.610;11.016;2023-04-06T18:26:19;98264.59;;;14.82;66.56
22311;BME280;11323;49.610;11.016;2023-04-06T18:31:20;98257.88;;;14.79;66.69
22311;BME280;11323;49.610;11.016;2023-04-06T18:36:21;98272.47;;;14.82;66.62
22311;BME280;11323;49.610;11.016;2023-04-06T18:41:22;98266.38;;;14.81;66.48
22311;BME280;11323;49.610;11.016;2023-04-06T18:46:22;98266.38;;;14.81;66.52
22311;BME280;11323;49.610;11.016;2023-04-06T18:51:28;98270.16;;;14.79;66.26
22311;BME280;11323;49.610;11.016;2023-04-06T18:56:29;98260.66;;;14.78;66.03
22311;BME280;11323;49.610;11.016;2023-04-06T19:01:30;98271.16;;;14.78;66.31
22311;BME280;11323;49.610;11.016;2023-04-06T19:06:31;98267.88;;;14.76;66.40
22311;BME280;11323;49.610;11.016;2023-04-06T19:11:32;98272.50;;;14.74;66.08
22311;BME280;11323;49.610;11.016;2023-04-06T19:16:33;98263.97;;;14.72;66.27
22311;BME280;11323;49.610;11.016;2023-04-06T19:21:35;98258.06;;;14.70;66.56
22311;BME280;11323;49.610;11.016;2023-04-06T19:26:36;98271.50;;;14.75;66.33
22311;BME280;11323;49.610;11.016;2023-04-06T19:31:36;98271.84;;;14.72;66.25
22311;BME280;11323;49.610;11.016;2023-04-06T19:36:37;98268.56;;;14.70;66.52
22311;BME280;11323;49.610;11.016;2023-04-06T19:41:38;98273.16;;;14.67;66.34
22311;BME280;11323;49.610;11.016;2023-04-06T19:46:38;98267.56;;;14.62;66.48
22311;BME280;11323;49.610;11.016;2023-04-06T19:51:39;98277.06;;;14.63;66.46
22311;BME280;11323;49.610;11.016;2023-04-06T19:56:39;98278.88;;;14.63;66.30
22311;BME280;11323;49.610;11.016;2023-04-06T20:01:39;98273.13;;;14.59;66.21
22311;BME280;11323;49.610;11.016;2023-04-06T20:06:40;98278.38;;;14.59;66.23
22311;BME280;11323;49.610;11.016;2023-04-06T20:11:40;98278.06;;;14.54;66.34
22311;BME280;11323;49.610;11.016;2023-04-06T20:16:41;98277.06;;;14.55;66.14
22311;BME280;11323;49.610;11.016;2023-04-06T20:21:41;98278.88;;;14.55;66.49
22311;BME280;11323;49.610;11.016;2023-04-06T20:26:43;98277.75;;;14.49;66.78
22311;BME280;11323;49.610;11.016;2023-04-06T20:31:43;98277.75;;;14.49;66.27
22311;BME280;11323;49.610;11.016;2023-04-06T20:36:43;98278.41;;;14.43;66.62
22311;BME280;11323;49.610;11.016;2023-04-06T20:41:44;98269.56;;;14.35;66.66
22311;BME280;11323;49.610;11.016;2023-04-06T20:46:44;98273.81;;;14.36;66.67
22311;BME280;11323;49.610;11.016;2023-04-06T20:51:45;98266.94;;;14.35;66.28
22311;BME280;11323;49.610;11.016;2023-04-06T20:56:45;98269.38;;;14.37;66.20
22311;BME280;11323;49.610;11.016;2023-04-06T21:01:45;98262.38;;;14.29;66.50
22311;BME280;11323;49.610;11.016;2023-04-06T21:06:49;98259.41;;;14.24;66.73
22311;BME280;11323;49.610;11.016;2023-04-06T21:11:49;98260.38;;;14.23;66.61
22311;BME280;11323;49.610;11.016;2023-04-06T21:16:50;98261.38;;;14.22;67.03
22311;BME280;11323;49.610;11.016;2023-04-06T21:21:52;98269.09;;;14.24;66.83
22311;BME280;11323;49.610;11.016;2023-04-06T21:26:53;98261.38;;;14.22;66.73
22311;BME280;11323;49.610;11.016;2023-04-06T21:31:53;98264.31;;;14.19;66.69
22311;BME280;11323;49.610;11.016;2023-04-06T21:36:54;98259.06;;;14.19;66.63
22311;BME280;11323;49.610;11.016;2023-04-06T21:41:55;98254.97;;;14.16;66.68
22311;BME280;11323;49.610;11.016;2023-04-06T21:46:56;98246.31;;;14.16;66.45
22311;BME280;11323;49.610;11.016;2023-04-06T21:51:56;98255.66;;;14.18;67.08
22311;BME280;11323;49.610;11.016;2023-04-06T21:56:57;98254.19;;;14.16;66.85
22311;BME280;11323;49.610;11.016;2023-04-06T22:01:57;98256.81;;;14.16;66.59
22311;BME280;11323;49.610;11.016;2023-04-06T22:06:57;98244.69;;;14.15;66.93
22311;BME280;11323;49.610;11.016;2023-04-06T22:11:58;98255.47;;;14.12;66.85
22311;BME280;11323;49.610;11.016;2023-04-06T22:16:58;98248.59;;;14.11;66.91
22311;BME280;11323;49.610;11.016;2023-04-06T22:21:58;98250.25;;;14.12;66.80
22311;BME280;11323;49.610;11.016;2023-04-06T22:26:59;98240.06;;;14.09;66.95
22311;BME280;11323;49.610;11.016;2023-04-06T22:31:59;98245.66;;;14.05;66.95
22311;BME280;11323;49.610;11.016;2023-04-06T22:37:00;98243.38;;;14.02;66.72
22311;BME280;11323;49.610;11.016;2023-04-06T22:42:00;98231.75;;;13.97;67.24
22311;BME280;11323;49.610;11.016;2023-04-06T22:47:00;98235.81;;;13.99;67.17
22311;BME280;11323;49.610;11.016;2023-04-06T22:52:01;98229.78;;;13.99;66.61
22311;BME280;11323;49.610;11.016;2023-04-06T22:57:01;98236.00;;;13.98;67.23
22311;BME280;11323;49.610;11.016;2023-04-06T23:02:02;98224.06;;;13.95;67.15
22311;BME280;11323;49.610;11.016;2023-04-06T23:07:02;98215.03;;;13.89;66.98
22311;BME280;11323;49.610;11.016;2023-04-06T23:12:02;98224.06;;;13.95;66.78
22311;BME280;11323;49.610;11.016;2023-04-06T23:17:03;98225.03;;;13.94;66.83
22311;BME280;11323;49.610;11.016;2023-04-06T23:22:03;98218.28;;;13.92;66.84
22311;BME280;11323;49.610;11.016;2023-04-06T23:27:04;98221.91;;;13.90;66.88
22311;BME280;11323;49.610;11.016;2023-04-06T23:32:04;98223.72;;;13.90;66.89
22311;BME280;11323;49.610;11.016;2023-04-06T23:37:05;98224.69;;;13.89;66.89
22311;BME280;11323;49.610;11.016;2023-04-06T23:42:05;98215.84;;;13.90;66.67
22311;BME280;11323;49.610;11.016;2023-04-06T23:47:06;98217.16;;;13.86;66.70
22311;BME280;11323;49.610;11.016;2023-04-06T23:52:06;98210.44;;;13.83;66.88
22311;BME280;11323;49.610;11.016;2023-04-06T23:57:06;98214.53;;;13.86;67.37
